createdAt,value
2018-09-02T00:00:43.887Z,15.93
2018-09-02T00:03:12.726Z,14.97
2018-09-02T00:05:41.593Z,15.37
2018-09-02T00:08:10.488Z,15.23
2018-09-02T00:10:39.259Z,15.43
2018-09-02T00:13:08.077Z,15.87
2018-09-02T00:15:36.874Z,14.77
2018-09-02T00:18:05.780Z,15.30
2018-09-02T00:20:34.668Z,14.50
2018-09-02T00:23:03.398Z,15.87
2018-09-02T00:25:32.220Z,14.70
2018-09-02T00:28:01.142Z,14.73
2018-09-02T00:30:29.975Z,14.93
2018-09-02T00:32:58.763Z,14.57
2018-09-02T00:35:27.534Z,15.27
2018-09-02T00:37:56.282Z,14.40
2018-09-02T00:40:25.040Z,15.07
2018-09-02T00:42:53.887Z,14.37
2018-09-02T00:45:22.608Z,14.87
2018-09-02T00:47:51.302Z,14.20
2018-09-02T00:50:19.986Z,14.37
2018-09-02T00:52:48.711Z,14.17
2018-09-02T00:55:17.432Z,14.87
2018-09-02T00:57:46.127Z,13.90
2018-09-02T01:00:14.911Z,12.93
2018-09-02T01:02:43.699Z,13.13
2018-09-02T01:05:12.602Z,14.93
2018-09-02T01:07:41.318Z,13.37
2018-09-02T01:10:10.096Z,12.93
2018-09-02T01:12:38.819Z,13.00
2018-09-02T01:15:07.706Z,12.70
2018-09-02T01:17:36.436Z,13.57
2018-09-02T01:20:05.409Z,13.20
2018-09-02T01:22:34.216Z,12.50
2018-09-02T01:25:02.951Z,13.27
2018-09-02T01:27:31.604Z,12.57
2018-09-02T01:30:00.284Z,12.03
2018-09-02T01:32:29.135Z,12.30
2018-09-02T01:34:57.876Z,12.60
2018-09-02T01:37:26.628Z,12.43
2018-09-02T01:39:55.519Z,12.30
2018-09-02T01:42:24.267Z,13.00
2018-09-02T01:44:52.979Z,12.53
2018-09-02T01:47:21.736Z,12.67
2018-09-02T01:49:50.474Z,12.57
2018-09-02T01:52:19.159Z,13.30
2018-09-02T01:54:47.945Z,12.10
2018-09-02T01:57:16.959Z,12.90
2018-09-02T01:59:45.741Z,12.23
2018-09-02T02:02:14.532Z,12.03
2018-09-02T02:04:43.713Z,11.70
2018-09-02T02:07:13.671Z,12.60
2018-09-02T02:09:42.871Z,11.90
2018-09-02T02:12:11.563Z,11.90
2018-09-02T02:14:40.240Z,12.03
2018-09-02T02:17:09.114Z,12.73
2018-09-02T02:19:37.866Z,12.30
2018-09-02T02:22:06.600Z,12.10
2018-09-02T02:24:35.404Z,12.20
2018-09-02T02:27:04.299Z,12.93
2018-09-02T02:29:33.123Z,11.87
2018-09-02T02:32:01.871Z,12.00
2018-09-02T02:34:30.617Z,12.73
2018-09-02T02:36:59.342Z,13.30
2018-09-02T02:39:28.128Z,13.23
2018-09-02T02:41:56.909Z,13.03
2018-09-02T02:44:25.676Z,13.17
2018-09-02T02:46:54.491Z,13.70
2018-09-02T02:49:23.200Z,13.47
2018-09-02T02:51:51.912Z,14.50
2018-09-02T02:54:20.708Z,13.73
2018-09-02T02:56:49.445Z,13.60
2018-09-02T02:59:18.179Z,13.97
2018-09-02T03:01:46.973Z,13.90
2018-09-02T03:04:15.670Z,14.00
2018-09-02T03:06:44.385Z,13.87
2018-09-02T03:09:13.518Z,14.17
2018-09-02T03:11:42.604Z,13.63
2018-09-02T03:14:11.856Z,13.27
2018-09-02T03:16:40.774Z,14.00
2018-09-02T03:19:10.035Z,13.60
2018-09-02T03:21:38.854Z,13.67
2018-09-02T03:24:07.629Z,13.27
2018-09-02T03:26:36.441Z,14.17
2018-09-02T03:29:05.163Z,13.00
2018-09-02T03:31:33.987Z,14.03
2018-09-02T03:34:02.719Z,14.00
2018-09-02T03:36:31.462Z,14.27
2018-09-02T03:39:00.182Z,13.33
2018-09-02T03:41:28.914Z,14.13
2018-09-02T03:43:57.863Z,14.23
2018-09-02T03:46:26.576Z,13.47
2018-09-02T03:48:55.434Z,13.50
2018-09-02T03:51:24.276Z,13.73
2018-09-02T03:53:53.025Z,13.87
2018-09-02T03:56:21.720Z,13.90
2018-09-02T03:58:50.523Z,13.87
2018-09-02T04:01:19.265Z,14.50
2018-09-02T04:03:48.022Z,14.70
2018-09-02T04:06:16.815Z,15.27
2018-09-02T04:08:45.609Z,14.13
2018-09-02T04:11:14.457Z,13.93
2018-09-02T04:13:43.099Z,14.47
2018-09-02T04:16:11.994Z,14.00
2018-09-02T04:18:40.710Z,14.27
2018-09-02T04:21:09.466Z,15.03
2018-09-02T04:23:38.203Z,14.27
2018-09-02T04:26:06.952Z,15.43
2018-09-02T04:28:35.785Z,15.77
2018-09-02T04:31:04.505Z,15.07
2018-09-02T04:33:33.236Z,15.47
2018-09-02T04:36:01.943Z,15.07
2018-09-02T04:38:30.672Z,14.53
2018-09-02T04:40:59.391Z,14.90
2018-09-02T04:43:28.076Z,14.73
2018-09-02T04:45:56.813Z,15.10
2018-09-02T04:48:25.527Z,16.50
2018-09-02T04:50:54.255Z,16.30
2018-09-02T04:53:22.958Z,17.20
2018-09-02T04:55:51.693Z,16.50
2018-09-02T04:58:20.456Z,17.93
2018-09-02T05:00:49.249Z,18.23
2018-09-02T05:03:17.985Z,19.27
2018-09-02T05:05:46.746Z,19.30
2018-09-02T05:08:15.573Z,19.40
2018-09-02T05:10:44.306Z,18.57
2018-09-02T05:13:13.211Z,18.57
2018-09-02T05:15:41.907Z,18.97
2018-09-02T05:18:10.730Z,23.27
2018-09-02T05:20:39.391Z,19.50
2018-09-02T05:23:08.120Z,20.37
2018-09-02T05:25:36.958Z,19.70
2018-09-02T05:28:06.721Z,16.67
2018-09-02T05:30:35.663Z,16.93
2018-09-02T05:33:04.603Z,17.20
2018-09-02T05:35:33.388Z,16.70
2018-09-02T05:38:02.159Z,16.97
2018-09-02T05:40:30.954Z,17.87
2018-09-02T05:42:59.811Z,16.35
2018-09-02T05:45:28.615Z,16.15
2018-09-02T05:47:57.298Z,15.43
2018-09-02T05:50:26.193Z,16.10
2018-09-02T05:52:54.879Z,17.32
2018-09-02T05:55:23.603Z,17.48
2018-09-02T05:57:52.327Z,16.48
2018-09-02T06:00:21.072Z,16.60
2018-09-02T06:02:49.960Z,16.95
2018-09-02T06:05:26.144Z,17.25
2018-09-02T06:07:56.143Z,16.82
2018-09-02T06:10:25.190Z,17.80
2018-09-02T06:12:53.993Z,17.70
2018-09-02T06:15:22.696Z,17.55
2018-09-02T06:17:51.415Z,19.50
2018-09-02T06:20:20.172Z,20.37
2018-09-02T06:22:48.964Z,20.10
2018-09-02T06:25:17.776Z,20.35
2018-09-02T06:27:46.833Z,20.12
2018-09-02T06:30:15.820Z,21.12
2018-09-02T06:32:44.686Z,19.95
2018-09-02T06:35:13.956Z,19.65
2018-09-02T06:37:42.766Z,19.80
2018-09-02T06:40:11.537Z,18.85
2018-09-02T06:42:40.353Z,20.27
2018-09-02T06:45:09.207Z,19.35
2018-09-02T06:47:38.250Z,19.77
2018-09-02T06:50:07.400Z,19.95
2018-09-02T06:52:36.270Z,20.97
2018-09-02T06:55:05.210Z,19.80
2018-09-02T06:57:33.985Z,19.82
2018-09-02T07:00:02.718Z,19.32
2018-09-02T07:02:31.448Z,20.70
2018-09-02T07:05:00.346Z,19.98
2018-09-02T07:07:29.200Z,20.27
2018-09-02T07:09:57.855Z,18.48
2018-09-02T07:12:26.631Z,18.40
2018-09-02T07:14:55.484Z,19.35
2018-09-02T07:17:24.292Z,19.00
2018-09-02T07:19:53.148Z,20.57
2018-09-02T07:22:21.965Z,19.98
2018-09-02T07:24:50.805Z,20.12
2018-09-02T07:27:19.577Z,19.42
2018-09-02T07:29:48.248Z,18.92
2018-09-02T07:32:17.153Z,19.57
2018-09-02T07:34:45.961Z,19.02
2018-09-02T07:37:14.773Z,19.25
2018-09-02T07:39:43.510Z,18.40
2018-09-02T07:42:12.347Z,18.55
2018-09-02T07:44:41.324Z,17.40
2018-09-02T07:47:10.006Z,18.37
2018-09-02T07:49:38.788Z,18.20
2018-09-02T07:52:07.625Z,16.85
2018-09-02T07:54:36.462Z,17.80
2018-09-02T07:57:05.224Z,17.75
2018-09-02T07:59:34.067Z,17.25
2018-09-02T08:02:02.975Z,15.38
2018-09-02T08:04:31.713Z,15.98
2018-09-02T08:07:00.559Z,14.80
2018-09-02T08:09:29.413Z,16.60
2018-09-02T08:11:58.215Z,15.90
2018-09-02T08:14:27.040Z,15.28
2018-09-02T08:16:55.838Z,15.83
2018-09-02T08:19:24.631Z,19.95
2018-09-02T08:21:53.582Z,17.67
2018-09-02T08:24:22.446Z,17.50
2018-09-02T08:26:51.126Z,16.52
2018-09-02T08:29:19.942Z,15.90
2018-09-02T08:31:48.748Z,16.62
2018-09-02T08:34:17.495Z,15.20
2018-09-02T08:36:46.316Z,15.78
2018-09-02T08:39:15.322Z,15.65
2018-09-02T08:41:44.079Z,15.20
2018-09-02T08:44:13.090Z,15.28
2018-09-02T08:46:41.898Z,16.52
2018-09-02T08:49:10.746Z,16.23
2018-09-02T08:51:39.632Z,16.57
2018-09-02T08:54:08.884Z,15.25
2018-09-02T08:56:37.734Z,15.05
2018-09-02T08:59:06.465Z,15.10
2018-09-02T09:01:35.402Z,15.60
2018-09-02T09:04:04.132Z,14.98
2018-09-02T09:06:32.899Z,15.03
2018-09-02T09:09:01.802Z,14.35
2018-09-02T09:11:30.436Z,14.25
2018-09-02T09:13:59.170Z,13.68
2018-09-02T09:16:28.073Z,12.90
2018-09-02T09:18:56.732Z,11.38
2018-09-02T09:21:25.563Z,12.60
2018-09-02T09:23:54.305Z,12.73
2018-09-02T09:26:23.055Z,11.48
2018-09-02T09:28:51.763Z,10.55
2018-09-02T09:31:20.535Z,11.40
2018-09-02T09:33:49.262Z,11.68
2018-09-02T09:36:18.059Z,9.88
2018-09-02T09:38:46.902Z,10.23
2018-09-02T09:41:15.580Z,10.10
2018-09-02T09:43:44.226Z,10.28
2018-09-02T09:46:13.003Z,10.65
2018-09-02T09:48:41.686Z,10.25
2018-09-02T09:51:10.347Z,10.32
2018-09-02T09:53:39.053Z,9.93
2018-09-02T09:56:07.778Z,10.18
2018-09-02T09:58:36.417Z,9.45
2018-09-02T10:01:05.155Z,8.78
2018-09-02T10:03:33.940Z,9.40
2018-09-02T10:06:02.636Z,9.35
2018-09-02T10:08:31.383Z,9.00
2018-09-02T10:11:00.204Z,9.48
2018-09-02T10:13:29.558Z,9.55
2018-09-02T10:15:58.332Z,8.93
2018-09-02T10:18:27.135Z,9.13
2018-09-02T10:20:56.693Z,9.15
2018-09-02T10:23:25.525Z,9.43
2018-09-02T10:25:54.325Z,9.05
2018-09-02T10:28:23.090Z,8.33
2018-09-02T10:30:51.904Z,8.60
2018-09-02T10:33:20.806Z,8.70
2018-09-02T10:35:49.550Z,8.33
2018-09-02T10:38:18.258Z,8.08
2018-09-02T10:40:47.036Z,7.83
2018-09-02T10:43:15.812Z,8.15
2018-09-02T10:45:44.546Z,13.08
2018-09-02T10:48:13.299Z,7.30
2018-09-02T10:50:42.072Z,7.75
2018-09-02T10:53:10.866Z,7.55
2018-09-02T10:55:39.922Z,8.28
2018-09-02T10:58:08.607Z,7.92
2018-09-02T11:00:37.412Z,7.20
2018-09-02T11:03:06.402Z,6.95
2018-09-02T11:05:35.166Z,7.28
2018-09-02T11:08:04.044Z,7.10
2018-09-02T11:10:32.710Z,6.80
2018-09-02T11:13:01.448Z,6.78
2018-09-02T11:15:30.150Z,7.17
2018-09-02T11:17:59.010Z,6.78
2018-09-02T11:20:27.728Z,7.50
2018-09-02T11:22:56.418Z,7.28
2018-09-02T11:25:25.140Z,7.20
2018-09-02T11:27:53.825Z,7.67
2018-09-02T11:30:22.571Z,7.62
2018-09-02T11:32:51.326Z,8.80
2018-09-02T11:35:20.066Z,6.80
2018-09-02T11:37:48.842Z,7.75
2018-09-02T11:40:17.517Z,7.67
2018-09-02T11:42:46.195Z,6.83
2018-09-02T11:45:14.859Z,7.35
2018-09-02T11:47:43.568Z,6.85
2018-09-02T11:50:12.291Z,7.00
2018-09-02T11:52:40.963Z,7.70
2018-09-02T11:55:09.766Z,7.72
2018-09-02T11:57:38.523Z,8.90
2018-09-02T12:00:07.503Z,7.58
2018-09-02T12:02:36.222Z,7.20
2018-09-02T12:05:05.035Z,8.20
2018-09-02T12:07:33.719Z,7.20
2018-09-02T12:10:02.465Z,7.42
2018-09-02T12:12:31.287Z,7.25
2018-09-02T12:15:00.844Z,7.03
2018-09-02T12:17:29.491Z,7.05
2018-09-02T12:19:58.185Z,7.42
2018-09-02T12:22:26.882Z,7.05
2018-09-02T12:24:55.550Z,7.35
2018-09-02T12:27:24.293Z,7.25
2018-09-02T12:29:53.049Z,7.33
2018-09-02T12:32:21.721Z,7.33
2018-09-02T12:34:50.385Z,7.05
2018-09-02T12:37:19.053Z,6.70
2018-09-02T12:39:47.697Z,6.72
2018-09-02T12:42:16.415Z,6.85
2018-09-02T12:44:45.112Z,6.95
2018-09-02T12:47:14.041Z,7.10
2018-09-02T12:49:42.784Z,7.42
2018-09-02T12:52:11.481Z,6.75
2018-09-02T12:54:40.235Z,6.78
2018-09-02T12:57:08.925Z,6.70
2018-09-02T12:59:37.724Z,7.20
2018-09-02T13:02:06.603Z,7.00
2018-09-02T13:04:35.474Z,7.15
2018-09-02T13:07:04.174Z,6.42
2018-09-02T13:09:33.012Z,6.72
2018-09-02T13:12:01.753Z,7.28
2018-09-02T13:14:30.555Z,7.12
2018-09-02T13:16:59.342Z,6.65
2018-09-02T13:19:28.064Z,7.37
2018-09-02T13:21:56.828Z,7.30
2018-09-02T13:24:25.577Z,7.28
2018-09-02T13:26:54.210Z,7.28
2018-09-02T13:29:23.022Z,7.58
2018-09-02T13:31:51.884Z,6.90
2018-09-02T13:34:20.605Z,7.10
2018-09-02T13:36:49.430Z,7.45
2018-09-02T13:39:18.172Z,7.50
2018-09-02T13:41:47.055Z,7.15
2018-09-02T13:44:15.809Z,7.05
2018-09-02T13:46:44.555Z,7.28
2018-09-02T13:49:13.565Z,7.37
2018-09-02T13:51:42.786Z,7.12
2018-09-02T13:54:11.640Z,7.30
2018-09-02T13:56:41.102Z,7.17
2018-09-02T13:59:09.751Z,6.90
2018-09-02T14:01:38.780Z,7.08
2018-09-02T14:04:07.697Z,7.53
2018-09-02T14:06:36.515Z,7.15
2018-09-02T14:09:06.326Z,7.00
2018-09-02T14:11:35.085Z,7.22
2018-09-02T14:14:03.882Z,7.10
2018-09-02T14:16:32.663Z,7.12
2018-09-02T14:19:01.440Z,6.97
2018-09-02T14:21:30.218Z,7.17
2018-09-02T14:23:58.898Z,7.10
2018-09-02T14:26:27.774Z,7.00
2018-09-02T14:28:56.491Z,7.55
2018-09-02T14:31:25.191Z,7.40
2018-09-02T14:33:53.962Z,7.33
2018-09-02T14:36:22.704Z,7.22
2018-09-02T14:38:51.635Z,7.95
2018-09-02T14:41:20.423Z,8.00
2018-09-02T14:43:49.408Z,7.60
2018-09-02T14:46:18.141Z,7.87
2018-09-02T14:48:46.944Z,7.40
2018-09-02T14:51:15.720Z,6.97
2018-09-02T14:53:44.397Z,8.63
2018-09-02T14:56:13.195Z,7.40
2018-09-02T14:58:41.965Z,7.30
2018-09-02T15:01:10.721Z,7.90
2018-09-02T15:03:39.411Z,7.30
2018-09-02T15:06:08.227Z,8.13
2018-09-02T15:08:36.918Z,8.48
2018-09-02T15:11:05.951Z,7.87
2018-09-02T15:13:34.746Z,7.97
2018-09-02T15:16:04.571Z,8.63
2018-09-02T15:18:33.500Z,7.50
2018-09-02T15:21:02.354Z,8.45
2018-09-02T15:23:31.144Z,7.90
2018-09-02T15:25:59.843Z,7.78
2018-09-02T15:28:28.490Z,7.65
2018-09-02T15:30:57.306Z,7.85
2018-09-02T15:33:26.142Z,8.23
2018-09-02T15:35:54.842Z,7.70
2018-09-02T15:38:23.567Z,8.43
2018-09-02T15:40:52.289Z,7.67
2018-09-02T15:43:20.955Z,8.08
2018-09-02T15:45:49.647Z,8.63
2018-09-02T15:48:18.506Z,7.72
2018-09-02T15:50:47.257Z,7.78
2018-09-02T15:53:16.023Z,8.75
2018-09-02T15:55:44.760Z,8.20
2018-09-02T15:58:13.553Z,8.55
2018-09-02T16:00:42.698Z,8.15
2018-09-02T16:03:21.568Z,8.43
2018-09-02T16:05:55.733Z,8.25
2018-09-02T16:08:28.030Z,9.73
2018-09-02T16:10:58.839Z,14.38
2018-09-02T16:13:27.554Z,10.20
2018-09-02T16:15:56.503Z,9.13
2018-09-02T16:18:25.242Z,8.33
2018-09-02T16:20:53.984Z,8.70
2018-09-02T16:23:22.723Z,8.35
2018-09-02T16:25:51.543Z,8.25
2018-09-02T16:28:20.326Z,8.35
2018-09-02T16:30:49.123Z,8.35
2018-09-02T16:33:17.782Z,8.77
2018-09-02T16:35:46.723Z,8.73
2018-09-02T16:38:15.499Z,8.45
2018-09-02T16:40:44.210Z,8.23
2018-09-02T16:43:12.897Z,9.00
2018-09-02T16:45:44.018Z,8.87
2018-09-02T16:48:12.787Z,9.37
2018-09-02T16:50:41.558Z,9.07
2018-09-02T16:53:10.439Z,8.50
2018-09-02T16:55:39.302Z,9.13
2018-09-02T16:58:08.059Z,9.37
2018-09-02T17:00:36.946Z,9.03
2018-09-02T17:03:05.690Z,9.20
2018-09-02T17:05:34.374Z,8.77
2018-09-02T17:08:03.063Z,8.80
2018-09-02T17:10:31.822Z,8.77
2018-09-02T17:13:00.625Z,9.50
2018-09-02T17:15:29.354Z,10.20
2018-09-02T17:17:58.116Z,9.87
2018-09-02T17:20:36.359Z,8.37
2018-09-02T17:23:10.177Z,8.70
2018-09-02T17:25:38.963Z,9.90
2018-09-02T17:28:07.846Z,10.27
2018-09-02T17:30:37.278Z,10.63
2018-09-02T17:33:06.870Z,11.03
2018-09-02T17:35:35.565Z,9.30
2018-09-02T17:38:04.309Z,9.27
2018-09-02T17:40:33.355Z,9.37
2018-09-02T17:43:02.522Z,10.10
2018-09-02T17:45:31.310Z,9.13
2018-09-02T17:48:00.047Z,10.07
2018-09-02T17:50:28.778Z,10.67
2018-09-02T17:52:57.675Z,16.70
2018-09-02T17:55:26.413Z,13.93
2018-09-02T17:57:55.241Z,12.20
2018-09-02T18:00:27.195Z,18.50
2018-09-02T18:02:56.042Z,18.20
2018-09-02T18:05:24.926Z,16.33
2018-09-02T18:07:53.635Z,11.53
2018-09-02T18:10:22.347Z,14.53
2018-09-02T18:12:51.095Z,14.80
2018-09-02T18:15:19.856Z,14.20
2018-09-02T18:17:48.551Z,14.20
2018-09-02T18:20:17.280Z,13.67
2018-09-02T18:22:46.010Z,11.00
2018-09-02T18:25:14.780Z,10.90
2018-09-02T18:27:45.801Z,11.20
2018-09-02T18:30:14.575Z,11.77
2018-09-02T18:32:43.306Z,11.80
2018-09-02T18:35:12.111Z,9.10
2018-09-02T18:37:40.830Z,9.67
2018-09-02T18:40:09.513Z,10.00
2018-09-02T18:42:38.319Z,10.10
2018-09-02T18:45:07.291Z,10.73
2018-09-02T18:47:35.966Z,9.20
2018-09-02T18:50:04.893Z,9.53
2018-09-02T18:52:33.694Z,9.87
2018-09-02T18:55:02.419Z,9.10
2018-09-02T18:57:31.083Z,8.87
2018-09-02T18:59:59.756Z,9.30
2018-09-02T19:02:28.478Z,9.17
2018-09-02T19:04:57.330Z,9.10
2018-09-02T19:07:26.066Z,10.17
2018-09-02T19:09:54.898Z,10.30
2018-09-02T19:12:23.622Z,10.43
2018-09-02T19:14:52.391Z,9.20
2018-09-02T19:17:21.117Z,10.87
2018-09-02T19:19:49.797Z,10.07
2018-09-02T19:22:18.598Z,10.37
2018-09-02T19:24:47.269Z,10.80
2018-09-02T19:27:15.958Z,8.83
2018-09-02T19:29:44.707Z,9.60
2018-09-02T19:32:13.565Z,8.63
2018-09-02T19:34:42.334Z,9.10
2018-09-02T19:37:11.053Z,9.23
2018-09-02T19:39:39.774Z,9.20
2018-09-02T19:42:08.561Z,8.30
2018-09-02T19:44:37.292Z,9.33
2018-09-02T19:47:06.140Z,8.60
2018-09-02T19:49:34.973Z,8.97
2018-09-02T19:52:03.742Z,8.23
2018-09-02T19:54:32.382Z,9.30
2018-09-02T19:57:01.125Z,9.00
2018-09-02T19:59:29.985Z,8.97
2018-09-02T20:01:58.811Z,8.00
2018-09-02T20:04:27.558Z,8.97
2018-09-02T20:06:56.280Z,7.90
2018-09-02T20:09:24.913Z,8.97
2018-09-02T20:11:53.551Z,8.63
2018-09-02T20:14:22.250Z,9.37
2018-09-02T20:16:50.953Z,8.60
2018-09-02T20:19:19.731Z,8.37
2018-09-02T20:21:48.471Z,9.10
2018-09-02T20:24:17.233Z,8.77
2018-09-02T20:26:45.993Z,8.73
2018-09-02T20:29:14.684Z,8.60
2018-09-02T20:31:43.414Z,9.20
2018-09-02T20:34:12.174Z,9.10
2018-09-02T20:36:40.950Z,8.80
2018-09-02T20:39:09.919Z,8.70
2018-09-02T20:41:38.578Z,8.77
2018-09-02T20:44:07.658Z,10.00
2018-09-02T20:46:36.528Z,9.03
2018-09-02T20:49:05.471Z,8.67
2018-09-02T20:51:34.135Z,8.20
2018-09-02T20:54:02.858Z,8.67
2018-09-02T20:56:31.522Z,8.60
2018-09-02T20:59:00.243Z,8.80
2018-09-02T21:01:29.012Z,8.53
2018-09-02T21:03:57.802Z,8.07
2018-09-02T21:06:26.476Z,8.00
2018-09-02T21:08:55.328Z,8.43
2018-09-02T21:11:24.175Z,8.30
2018-09-02T21:13:52.940Z,8.60
2018-09-02T21:16:21.686Z,8.50
2018-09-02T21:18:50.422Z,8.13
2018-09-02T21:21:19.098Z,9.13
2018-09-02T21:23:47.795Z,9.43
2018-09-02T21:26:16.547Z,8.80
2018-09-02T21:28:45.337Z,8.60
2018-09-02T21:31:14.028Z,8.63
2018-09-02T21:33:42.780Z,8.10
2018-09-02T21:36:11.411Z,8.33
2018-09-02T21:38:40.131Z,8.70
2018-09-02T21:41:08.802Z,8.87
2018-09-02T21:43:37.601Z,8.70
2018-09-02T21:46:06.546Z,8.83
2018-09-02T21:48:35.246Z,8.80
2018-09-02T21:51:04.585Z,8.67
2018-09-02T21:53:33.383Z,8.57
2018-09-02T21:56:02.267Z,8.53
2018-09-02T21:58:31.099Z,8.70
2018-09-02T22:00:59.890Z,8.93
2018-09-02T22:03:28.785Z,8.70
2018-09-02T22:05:57.583Z,9.37
2018-09-02T22:08:26.401Z,9.53
2018-09-02T22:10:55.204Z,9.20
2018-09-02T22:13:23.975Z,9.03
2018-09-02T22:15:52.737Z,9.80
2018-09-02T22:18:21.437Z,9.27
2018-09-02T22:20:50.163Z,9.70
2018-09-02T22:23:19.026Z,9.80
2018-09-02T22:25:48.056Z,8.97
2018-09-02T22:28:16.844Z,9.40
2018-09-02T22:30:45.557Z,10.07
2018-09-02T22:33:14.305Z,8.60
2018-09-02T22:35:43.093Z,9.57
2018-09-02T22:38:12.324Z,8.80
2018-09-02T22:40:41.064Z,9.17
2018-09-02T22:43:09.805Z,8.80
2018-09-02T22:45:38.817Z,9.23
2018-09-02T22:48:07.891Z,9.27
2018-09-02T22:50:36.551Z,9.23
2018-09-02T22:53:05.278Z,9.10
2018-09-02T22:55:34.038Z,9.67
2018-09-02T22:58:02.833Z,9.93
2018-09-02T23:00:31.650Z,9.07
2018-09-02T23:03:00.323Z,9.73
2018-09-02T23:05:28.990Z,10.00
2018-09-02T23:07:57.700Z,9.50
2018-09-02T23:10:26.442Z,9.10
2018-09-02T23:12:55.281Z,9.00
2018-09-02T23:15:24.162Z,8.77
2018-09-02T23:17:52.926Z,8.63
2018-09-02T23:20:21.786Z,8.33
2018-09-02T23:22:50.687Z,8.63
2018-09-02T23:25:19.603Z,9.30
2018-09-02T23:27:48.420Z,9.37
2018-09-02T23:30:17.191Z,9.20
2018-09-02T23:32:45.902Z,9.20
2018-09-02T23:35:14.582Z,9.10
2018-09-02T23:37:43.271Z,9.40
2018-09-02T23:40:12.005Z,8.93
2018-09-02T23:42:40.716Z,9.00
2018-09-02T23:45:09.421Z,9.33
2018-09-02T23:47:38.275Z,9.27
2018-09-02T23:50:07.170Z,9.53
2018-09-02T23:52:36.011Z,9.30
2018-09-02T23:55:04.947Z,9.13
2018-09-02T23:57:33.592Z,8.07
